sensor_id;sensor_type;location;lat;lon;timestamp;P1;durP1;ratioP1;P2;durP2;ratioP2
7699;SDS011;3892;47.794;19.126;2023-07-29T00:02:15;4.73;;;3.30;;
7699;SDS011;3892;47.794;19.126;2023-07-29T00:04:43;3.40;;;3.10;;
7699;SDS011;3892;47.794;19.126;2023-07-29T00:07:11;3.63;;;3.33;;
7699;SDS011;3892;47.794;19.126;2023-07-29T00:09:39;4.17;;;3.20;;
7699;SDS011;3892;47.794;19.126;2023-07-29T00:12:07;3.80;;;3.10;;
7699;SDS011;3892;47.794;19.126;2023-07-29T00:14:37;4.83;;;3.10;;
7699;SDS011;3892;47.794;19.126;2023-07-29T00:17:05;4.23;;;3.37;;
7699;SDS011;3892;47.794;19.126;2023-07-29T00:19:33;3.37;;;2.93;;
7699;SDS011;3892;47.794;19.126;2023-07-29T00:22:01;3.33;;;3.03;;
7699;SDS011;3892;47.794;19.126;2023-07-29T00:24:29;4.03;;;3.40;;
7699;SDS011;3892;47.794;19.126;2023-07-29T00:26:57;3.97;;;3.00;;
7699;SDS011;3892;47.794;19.126;2023-07-29T00:29:25;3.57;;;3.27;;
7699;SDS011;3892;47.794;19.126;2023-07-29T00:31:55;3.50;;;3.20;;
7699;SDS011;3892;47.794;19.126;2023-07-29T00:34:23;4.23;;;3.20;;
7699;SDS011;3892;47.794;19.126;2023-07-29T00:36:51;3.40;;;2.90;;
7699;SDS011;3892;47.794;19.126;2023-07-29T00:39:19;4.00;;;2.80;;
7699;SDS011;3892;47.794;19.126;2023-07-29T00:41:47;4.50;;;3.00;;
7699;SDS011;3892;47.794;19.126;2023-07-29T00:44:15;3.50;;;3.20;;
7699;SDS011;3892;47.794;19.126;2023-07-29T00:46:43;3.80;;;2.83;;
7699;SDS011;3892;47.794;19.126;2023-07-29T00:49:15;3.97;;;2.67;;
7699;SDS011;3892;47.794;19.126;2023-07-29T00:51:43;3.40;;;3.10;;
7699;SDS011;3892;47.794;19.126;2023-07-29T00:54:12;3.73;;;3.20;;
7699;SDS011;3892;47.794;19.126;2023-07-29T00:56:40;5.20;;;3.23;;
7699;SDS011;3892;47.794;19.126;2023-07-29T00:59:08;3.20;;;2.90;;
7699;SDS011;3892;47.794;19.126;2023-07-29T01:01:36;3.37;;;3.07;;
7699;SDS011;3892;47.794;19.126;2023-07-29T01:04:05;3.67;;;2.80;;
7699;SDS011;3892;47.794;19.126;2023-07-29T01:06:37;3.50;;;3.07;;
7699;SDS011;3892;47.794;19.126;2023-07-29T01:09:25;7.27;;;3.07;;
7699;SDS011;3892;47.794;19.126;2023-07-29T01:12:06;3.70;;;3.20;;
7699;SDS011;3892;47.794;19.126;2023-07-29T01:14:41;3.40;;;3.03;;
7699;SDS011;3892;47.794;19.126;2023-07-29T01:17:13;3.77;;;2.93;;
7699;SDS011;3892;47.794;19.126;2023-07-29T01:19:53;3.80;;;3.40;;
7699;SDS011;3892;47.794;19.126;2023-07-29T01:22:30;5.23;;;3.17;;
7699;SDS011;3892;47.794;19.126;2023-07-29T01:25:01;4.73;;;3.50;;
7699;SDS011;3892;47.794;19.126;2023-07-29T01:27:30;3.53;;;3.23;;
7699;SDS011;3892;47.794;19.126;2023-07-29T01:29:58;5.20;;;3.30;;
7699;SDS011;3892;47.794;19.126;2023-07-29T01:32:28;4.30;;;3.10;;
7699;SDS011;3892;47.794;19.126;2023-07-29T01:35:03;3.93;;;3.40;;
7699;SDS011;3892;47.794;19.126;2023-07-29T01:37:40;4.50;;;3.43;;
7699;SDS011;3892;47.794;19.126;2023-07-29T01:40:13;3.73;;;3.30;;
7699;SDS011;3892;47.794;19.126;2023-07-29T01:42:41;5.73;;;3.50;;
7699;SDS011;3892;47.794;19.126;2023-07-29T01:45:11;3.50;;;3.20;;
7699;SDS011;3892;47.794;19.126;2023-07-29T01:47:39;3.60;;;3.30;;
7699;SDS011;3892;47.794;19.126;2023-07-29T01:50:08;7.47;;;3.40;;
7699;SDS011;3892;47.794;19.126;2023-07-29T01:52:36;4.73;;;3.23;;
7699;SDS011;3892;47.794;19.126;2023-07-29T01:55:05;4.00;;;3.57;;
7699;SDS011;3892;47.794;19.126;2023-07-29T01:57:35;4.87;;;3.67;;
7699;SDS011;3892;47.794;19.126;2023-07-29T02:00:03;3.93;;;3.27;;
7699;SDS011;3892;47.794;19.126;2023-07-29T02:02:32;3.90;;;3.30;;
7699;SDS011;3892;47.794;19.126;2023-07-29T02:05:00;5.23;;;2.90;;
7699;SDS011;3892;47.794;19.126;2023-07-29T02:07:28;4.83;;;3.27;;
7699;SDS011;3892;47.794;19.126;2023-07-29T02:09:56;5.77;;;3.37;;
7699;SDS011;3892;47.794;19.126;2023-07-29T02:12:24;4.90;;;3.13;;
7699;SDS011;3892;47.794;19.126;2023-07-29T02:14:54;5.53;;;3.27;;
7699;SDS011;3892;47.794;19.126;2023-07-29T02:17:22;3.23;;;2.93;;
7699;SDS011;3892;47.794;19.126;2023-07-29T02:19:50;3.90;;;3.30;;
7699;SDS011;3892;47.794;19.126;2023-07-29T02:22:18;4.73;;;3.17;;
7699;SDS011;3892;47.794;19.126;2023-07-29T02:24:46;3.90;;;2.97;;
7699;SDS011;3892;47.794;19.126;2023-07-29T02:27:14;3.20;;;2.90;;
7699;SDS011;3892;47.794;19.126;2023-07-29T02:29:42;3.67;;;3.23;;
7699;SDS011;3892;47.794;19.126;2023-07-29T02:32:12;4.73;;;2.93;;
7699;SDS011;3892;47.794;19.126;2023-07-29T02:34:40;4.53;;;3.53;;
7699;SDS011;3892;47.794;19.126;2023-07-29T02:37:08;3.80;;;3.40;;
7699;SDS011;3892;47.794;19.126;2023-07-29T02:39:36;4.23;;;3.50;;
7699;SDS011;3892;47.794;19.126;2023-07-29T02:42:04;3.67;;;3.30;;
7699;SDS011;3892;47.794;19.126;2023-07-29T02:44:32;4.10;;;3.30;;
7699;SDS011;3892;47.794;19.126;2023-07-29T02:47:01;3.67;;;3.17;;
7699;SDS011;3892;47.794;19.126;2023-07-29T02:49:30;4.40;;;3.20;;
7699;SDS011;3892;47.794;19.126;2023-07-29T02:51:58;5.13;;;3.50;;
7699;SDS011;3892;47.794;19.126;2023-07-29T02:54:26;3.80;;;3.33;;
7699;SDS011;3892;47.794;19.126;2023-07-29T02:56:54;5.10;;;3.30;;
7699;SDS011;3892;47.794;19.126;2023-07-29T02:59:22;3.80;;;3.13;;
7699;SDS011;3892;47.794;19.126;2023-07-29T03:01:51;3.90;;;3.23;;
7699;SDS011;3892;47.794;19.126;2023-07-29T03:04:19;7.57;;;3.60;;
7699;SDS011;3892;47.794;19.126;2023-07-29T03:06:49;4.50;;;3.67;;
7699;SDS011;3892;47.794;19.126;2023-07-29T03:09:17;5.03;;;3.90;;
7699;SDS011;3892;47.794;19.126;2023-07-29T03:11:45;4.73;;;4.30;;
7699;SDS011;3892;47.794;19.126;2023-07-29T03:14:14;6.17;;;3.97;;
7699;SDS011;3892;47.794;19.126;2023-07-29T03:16:42;5.80;;;4.00;;
7699;SDS011;3892;47.794;19.126;2023-07-29T03:19:11;7.77;;;3.93;;
7699;SDS011;3892;47.794;19.126;2023-07-29T03:21:40;5.10;;;3.60;;
7699;SDS011;3892;47.794;19.126;2023-07-29T03:24:09;3.90;;;3.60;;
7699;SDS011;3892;47.794;19.126;2023-07-29T03:26:37;5.77;;;3.63;;
7699;SDS011;3892;47.794;19.126;2023-07-29T03:29:05;5.70;;;4.20;;
7699;SDS011;3892;47.794;19.126;2023-07-29T03:31:34;4.33;;;3.90;;
7699;SDS011;3892;47.794;19.126;2023-07-29T03:34:02;4.13;;;3.50;;
7699;SDS011;3892;47.794;19.126;2023-07-29T03:36:30;4.40;;;3.40;;
7699;SDS011;3892;47.794;19.126;2023-07-29T03:38:58;3.60;;;3.30;;
7699;SDS011;3892;47.794;19.126;2023-07-29T03:41:28;3.70;;;3.40;;
7699;SDS011;3892;47.794;19.126;2023-07-29T03:43:56;4.20;;;3.80;;
7699;SDS011;3892;47.794;19.126;2023-07-29T03:46:24;4.10;;;3.70;;
7699;SDS011;3892;47.794;19.126;2023-07-29T03:48:52;6.47;;;4.20;;
7699;SDS011;3892;47.794;19.126;2023-07-29T03:51:20;6.43;;;4.40;;
7699;SDS011;3892;47.794;19.126;2023-07-29T03:53:49;7.13;;;4.93;;
7699;SDS011;3892;47.794;19.126;2023-07-29T03:56:17;5.47;;;4.87;;
7699;SDS011;3892;47.794;19.126;2023-07-29T03:58:46;5.77;;;5.17;;
7699;SDS011;3892;47.794;19.126;2023-07-29T04:01:15;5.90;;;5.30;;
7699;SDS011;3892;47.794;19.126;2023-07-29T04:03:44;6.00;;;5.40;;
7699;SDS011;3892;47.794;19.126;2023-07-29T04:06:12;6.70;;;5.50;;
7699;SDS011;3892;47.794;19.126;2023-07-29T04:08:40;7.53;;;5.57;;
7699;SDS011;3892;47.794;19.126;2023-07-29T04:11:09;6.37;;;5.50;;
7699;SDS011;3892;47.794;19.126;2023-07-29T04:13:37;6.07;;;5.47;;
7699;SDS011;3892;47.794;19.126;2023-07-29T04:16:06;5.70;;;5.10;;
7699;SDS011;3892;47.794;19.126;2023-07-29T04:18:34;8.93;;;5.20;;
7699;SDS011;3892;47.794;19.126;2023-07-29T04:21:03;8.63;;;5.50;;
7699;SDS011;3892;47.794;19.126;2023-07-29T04:23:31;5.67;;;5.17;;
7699;SDS011;3892;47.794;19.126;2023-07-29T04:25:59;5.30;;;4.80;;
7699;SDS011;3892;47.794;19.126;2023-07-29T04:28:27;5.83;;;4.80;;
7699;SDS011;3892;47.794;19.126;2023-07-29T04:30:55;6.13;;;5.53;;
7699;SDS011;3892;47.794;19.126;2023-07-29T04:33:25;5.37;;;4.87;;
7699;SDS011;3892;47.794;19.126;2023-07-29T04:35:53;5.47;;;4.97;;
7699;SDS011;3892;47.794;19.126;2023-07-29T04:38:21;5.47;;;4.97;;
7699;SDS011;3892;47.794;19.126;2023-07-29T04:40:49;6.30;;;4.80;;
7699;SDS011;3892;47.794;19.126;2023-07-29T04:43:17;5.47;;;4.27;;
7699;SDS011;3892;47.794;19.126;2023-07-29T04:45:45;7.53;;;4.70;;
7699;SDS011;3892;47.794;19.126;2023-07-29T04:48:13;4.93;;;4.50;;
7699;SDS011;3892;47.794;19.126;2023-07-29T04:50:43;5.60;;;4.57;;
7699;SDS011;3892;47.794;19.126;2023-07-29T04:53:11;6.90;;;4.70;;
7699;SDS011;3892;47.794;19.126;2023-07-29T04:55:41;5.47;;;4.67;;
7699;SDS011;3892;47.794;19.126;2023-07-29T04:58:09;4.40;;;3.97;;
7699;SDS011;3892;47.794;19.126;2023-07-29T05:00:38;5.30;;;4.80;;
7699;SDS011;3892;47.794;19.126;2023-07-29T05:03:06;5.90;;;4.70;;
7699;SDS011;3892;47.794;19.126;2023-07-29T05:05:34;6.90;;;4.67;;
7699;SDS011;3892;47.794;19.126;2023-07-29T05:08:03;5.20;;;4.30;;
7699;SDS011;3892;47.794;19.126;2023-07-29T05:10:31;5.50;;;4.60;;
7699;SDS011;3892;47.794;19.126;2023-07-29T05:12:59;4.40;;;4.00;;
7699;SDS011;3892;47.794;19.126;2023-07-29T05:15:27;4.67;;;3.90;;
7699;SDS011;3892;47.794;19.126;2023-07-29T05:17:56;4.50;;;4.10;;
7699;SDS011;3892;47.794;19.126;2023-07-29T05:20:24;4.60;;;4.20;;
7699;SDS011;3892;47.794;19.126;2023-07-29T05:22:52;6.60;;;4.37;;
7699;SDS011;3892;47.794;19.126;2023-07-29T05:25:22;6.17;;;4.50;;
7699;SDS011;3892;47.794;19.126;2023-07-29T05:27:50;5.57;;;4.13;;
7699;SDS011;3892;47.794;19.126;2023-07-29T05:30:18;4.80;;;3.53;;
7699;SDS011;3892;47.794;19.126;2023-07-29T05:32:46;5.50;;;4.00;;
7699;SDS011;3892;47.794;19.126;2023-07-29T05:35:15;6.47;;;3.83;;
7699;SDS011;3892;47.794;19.126;2023-07-29T05:37:43;5.43;;;3.50;;
7699;SDS011;3892;47.794;19.126;2023-07-29T05:40:11;4.00;;;3.70;;
7699;SDS011;3892;47.794;19.126;2023-07-29T05:42:40;4.27;;;3.40;;
7699;SDS011;3892;47.794;19.126;2023-07-29T05:45:08;3.53;;;3.23;;
7699;SDS011;3892;47.794;19.126;2023-07-29T05:47:37;6.50;;;3.60;;
7699;SDS011;3892;47.794;19.126;2023-07-29T05:50:05;4.23;;;3.20;;
7699;SDS011;3892;47.794;19.126;2023-07-29T05:52:34;6.93;;;3.33;;
7699;SDS011;3892;47.794;19.126;2023-07-29T05:55:02;4.57;;;3.20;;
7699;SDS011;3892;47.794;19.126;2023-07-29T05:57:30;3.97;;;3.30;;
7699;SDS011;3892;47.794;19.126;2023-07-29T06:00:00;4.40;;;3.00;;
7699;SDS011;3892;47.794;19.126;2023-07-29T06:02:28;3.77;;;3.07;;
7699;SDS011;3892;47.794;19.126;2023-07-29T06:04:56;3.20;;;2.70;;
7699;SDS011;3892;47.794;19.126;2023-07-29T06:07:24;3.40;;;3.10;;
7699;SDS011;3892;47.794;19.126;2023-07-29T06:09:56;4.93;;;3.10;;
7699;SDS011;3892;47.794;19.126;2023-07-29T06:12:24;3.20;;;2.90;;
7699;SDS011;3892;47.794;19.126;2023-07-29T06:14:52;3.27;;;2.97;;
7699;SDS011;3892;47.794;19.126;2023-07-29T06:17:21;4.20;;;3.30;;
7699;SDS011;3892;47.794;19.126;2023-07-29T06:19:50;5.03;;;3.97;;
7699;SDS011;3892;47.794;19.126;2023-07-29T06:22:18;4.47;;;3.37;;
7699;SDS011;3892;47.794;19.126;2023-07-29T06:24:46;4.27;;;3.87;;
7699;SDS011;3892;47.794;19.126;2023-07-29T06:27:14;3.80;;;3.37;;
7699;SDS011;3892;47.794;19.126;2023-07-29T06:29:42;3.70;;;3.40;;
7699;SDS011;3892;47.794;19.126;2023-07-29T06:32:10;3.90;;;3.30;;
7699;SDS011;3892;47.794;19.126;2023-07-29T06:34:39;3.60;;;3.00;;
7699;SDS011;3892;47.794;19.126;2023-07-29T06:37:07;3.00;;;2.80;;
7699;SDS011;3892;47.794;19.126;2023-07-29T06:39:36;4.17;;;3.03;;
7699;SDS011;3892;47.794;19.126;2023-07-29T06:42:04;3.23;;;3.03;;
7699;SDS011;3892;47.794;19.126;2023-07-29T06:44:32;3.70;;;3.00;;
7699;SDS011;3892;47.794;19.126;2023-07-29T06:47:00;3.23;;;2.93;;
7699;SDS011;3892;47.794;19.126;2023-07-29T06:49:28;2.93;;;2.60;;
7699;SDS011;3892;47.794;19.126;2023-07-29T06:51:57;3.17;;;2.87;;
7699;SDS011;3892;47.794;19.126;2023-07-29T06:54:25;3.27;;;2.90;;
7699;SDS011;3892;47.794;19.126;2023-07-29T06:56:54;9.40;;;6.07;;
7699;SDS011;3892;47.794;19.126;2023-07-29T06:59:22;6.60;;;5.63;;
7699;SDS011;3892;47.794;19.126;2023-07-29T07:01:51;3.50;;;3.20;;
7699;SDS011;3892;47.794;19.126;2023-07-29T07:04:19;4.87;;;3.40;;
7699;SDS011;3892;47.794;19.126;2023-07-29T07:06:47;5.50;;;3.33;;
7699;SDS011;3892;47.794;19.126;2023-07-29T07:09:16;6.17;;;3.57;;
7699;SDS011;3892;47.794;19.126;2023-07-29T07:11:44;3.57;;;3.30;;
7699;SDS011;3892;47.794;19.126;2023-07-29T07:14:12;5.43;;;3.77;;
7699;SDS011;3892;47.794;19.126;2023-07-29T07:16:40;3.77;;;3.47;;
7699;SDS011;3892;47.794;19.126;2023-07-29T07:19:08;4.47;;;3.20;;
7699;SDS011;3892;47.794;19.126;2023-07-29T07:21:36;4.00;;;3.23;;
7699;SDS011;3892;47.794;19.126;2023-07-29T07:24:05;5.33;;;4.80;;
7699;SDS011;3892;47.794;19.126;2023-07-29T07:26:35;3.50;;;3.13;;
7699;SDS011;3892;47.794;19.126;2023-07-29T07:29:03;4.57;;;3.23;;
7699;SDS011;3892;47.794;19.126;2023-07-29T07:31:33;3.63;;;3.30;;
7699;SDS011;3892;47.794;19.126;2023-07-29T07:34:01;4.87;;;3.20;;
7699;SDS011;3892;47.794;19.126;2023-07-29T07:36:30;3.40;;;3.10;;
7699;SDS011;3892;47.794;19.126;2023-07-29T07:38:58;3.80;;;2.97;;
7699;SDS011;3892;47.794;19.126;2023-07-29T07:41:26;3.87;;;3.33;;
7699;SDS011;3892;47.794;19.126;2023-07-29T07:43:55;2.80;;;2.60;;
7699;SDS011;3892;47.794;19.126;2023-07-29T07:46:23;2.80;;;2.60;;
7699;SDS011;3892;47.794;19.126;2023-07-29T07:48:52;4.23;;;3.00;;
7699;SDS011;3892;47.794;19.126;2023-07-29T07:51:20;3.40;;;3.10;;
7699;SDS011;3892;47.794;19.126;2023-07-29T07:53:48;4.50;;;3.23;;
7699;SDS011;3892;47.794;19.126;2023-07-29T07:56:16;3.03;;;2.70;;
7699;SDS011;3892;47.794;19.126;2023-07-29T07:58:44;4.87;;;2.97;;
7699;SDS011;3892;47.794;19.126;2023-07-29T08:01:13;4.27;;;3.00;;
7699;SDS011;3892;47.794;19.126;2023-07-29T08:03:41;3.67;;;3.30;;
7699;SDS011;3892;47.794;19.126;2023-07-29T08:06:09;2.93;;;2.73;;
7699;SDS011;3892;47.794;19.126;2023-07-29T08:08:38;3.50;;;2.53;;
7699;SDS011;3892;47.794;19.126;2023-07-29T08:11:06;4.87;;;2.40;;
7699;SDS011;3892;47.794;19.126;2023-07-29T08:13:34;3.53;;;2.67;;
7699;SDS011;3892;47.794;19.126;2023-07-29T08:16:02;2.63;;;2.43;;
7699;SDS011;3892;47.794;19.126;2023-07-29T08:21:01;2.97;;;2.60;;
7699;SDS011;3892;47.794;19.126;2023-07-29T08:23:30;3.27;;;2.57;;
7699;SDS011;3892;47.794;19.126;2023-07-29T08:25:59;4.70;;;2.50;;
7699;SDS011;3892;47.794;19.126;2023-07-29T08:28:29;2.50;;;2.40;;
7699;SDS011;3892;47.794;19.126;2023-07-29T08:30:58;2.83;;;2.40;;
7699;SDS011;3892;47.794;19.126;2023-07-29T08:33:27;2.17;;;2.07;;
7699;SDS011;3892;47.794;19.126;2023-07-29T08:35:57;2.87;;;2.20;;
7699;SDS011;3892;47.794;19.126;2023-07-29T08:38:25;3.23;;;2.50;;
7699;SDS011;3892;47.794;19.126;2023-07-29T08:40:57;2.60;;;2.40;;
7699;SDS011;3892;47.794;19.126;2023-07-29T08:43:32;1.90;;;1.80;;
7699;SDS011;3892;47.794;19.126;2023-07-29T08:46:03;2.33;;;2.10;;
7699;SDS011;3892;47.794;19.126;2023-07-29T08:48:35;2.20;;;2.10;;
7699;SDS011;3892;47.794;19.126;2023-07-29T08:51:09;2.33;;;2.13;;
7699;SDS011;3892;47.794;19.126;2023-07-29T08:53:39;1.90;;;1.80;;
7699;SDS011;3892;47.794;19.126;2023-07-29T08:56:07;3.00;;;2.10;;
7699;SDS011;3892;47.794;19.126;2023-07-29T08:58:35;1.70;;;1.60;;
7699;SDS011;3892;47.794;19.126;2023-07-29T09:01:05;1.80;;;1.70;;
7699;SDS011;3892;47.794;19.126;2023-07-29T09:03:33;2.10;;;1.70;;
7699;SDS011;3892;47.794;19.126;2023-07-29T09:06:01;2.33;;;1.70;;
7699;SDS011;3892;47.794;19.126;2023-07-29T09:08:31;2.57;;;1.87;;
7699;SDS011;3892;47.794;19.126;2023-07-29T09:11:00;1.73;;;1.63;;
7699;SDS011;3892;47.794;19.126;2023-07-29T09:13:29;2.90;;;1.93;;
7699;SDS011;3892;47.794;19.126;2023-07-29T09:15:57;1.80;;;1.70;;
7699;SDS011;3892;47.794;19.126;2023-07-29T09:18:26;1.80;;;1.70;;
7699;SDS011;3892;47.794;19.126;2023-07-29T09:20:54;1.83;;;1.73;;
7699;SDS011;3892;47.794;19.126;2023-07-29T09:23:27;2.40;;;1.77;;
7699;SDS011;3892;47.794;19.126;2023-07-29T09:26:01;2.00;;;1.90;;
7699;SDS011;3892;47.794;19.126;2023-07-29T09:28:32;2.13;;;2.03;;
7699;SDS011;3892;47.794;19.126;2023-07-29T09:31:01;1.60;;;1.50;;
7699;SDS011;3892;47.794;19.126;2023-07-29T09:33:30;2.83;;;1.50;;
7699;SDS011;3892;47.794;19.126;2023-07-29T09:36:07;1.60;;;1.50;;
7699;SDS011;3892;47.794;19.126;2023-07-29T09:38:36;1.50;;;1.40;;
7699;SDS011;3892;47.794;19.126;2023-07-29T09:41:06;1.60;;;1.50;;
7699;SDS011;3892;47.794;19.126;2023-07-29T09:43:34;1.60;;;1.50;;
7699;SDS011;3892;47.794;19.126;2023-07-29T09:46:03;2.00;;;1.70;;
7699;SDS011;3892;47.794;19.126;2023-07-29T09:48:33;1.67;;;1.57;;
7699;SDS011;3892;47.794;19.126;2023-07-29T09:51:09;1.90;;;1.60;;
7699;SDS011;3892;47.794;19.126;2023-07-29T09:53:42;1.90;;;1.80;;
7699;SDS011;3892;47.794;19.126;2023-07-29T09:56:13;3.70;;;1.80;;
7699;SDS011;3892;47.794;19.126;2023-07-29T09:58:43;1.90;;;1.80;;
7699;SDS011;3892;47.794;19.126;2023-07-29T10:01:12;1.60;;;1.50;;
7699;SDS011;3892;47.794;19.126;2023-07-29T10:03:40;1.50;;;1.40;;
7699;SDS011;3892;47.794;19.126;2023-07-29T10:06:08;1.90;;;1.80;;
7699;SDS011;3892;47.794;19.126;2023-07-29T10:08:37;1.63;;;1.53;;
7699;SDS011;3892;47.794;19.126;2023-07-29T10:11:08;3.97;;;1.73;;
7699;SDS011;3892;47.794;19.126;2023-07-29T10:13:39;1.67;;;1.50;;
7699;SDS011;3892;47.794;19.126;2023-07-29T10:16:07;1.70;;;1.60;;
7699;SDS011;3892;47.794;19.126;2023-07-29T10:18:36;1.60;;;1.50;;
7699;SDS011;3892;47.794;19.126;2023-07-29T10:21:05;2.03;;;1.70;;
7699;SDS011;3892;47.794;19.126;2023-07-29T10:23:35;1.70;;;1.60;;
7699;SDS011;3892;47.794;19.126;2023-07-29T10:26:10;2.40;;;1.70;;
7699;SDS011;3892;47.794;19.126;2023-07-29T10:28:40;2.47;;;1.83;;
7699;SDS011;3892;47.794;19.126;2023-07-29T10:31:10;1.90;;;1.70;;
7699;SDS011;3892;47.794;19.126;2023-07-29T10:33:40;2.00;;;1.87;;
7699;SDS011;3892;47.794;19.126;2023-07-29T10:36:10;1.73;;;1.63;;
7699;SDS011;3892;47.794;19.126;2023-07-29T10:38:38;1.70;;;1.60;;
7699;SDS011;3892;47.794;19.126;2023-07-29T10:41:07;1.87;;;1.70;;
7699;SDS011;3892;47.794;19.126;2023-07-29T10:43:36;1.80;;;1.70;;
7699;SDS011;3892;47.794;19.126;2023-07-29T10:46:18;2.03;;;1.73;;
7699;SDS011;3892;47.794;19.126;2023-07-29T10:48:54;1.73;;;1.63;;
7699;SDS011;3892;47.794;19.126;2023-07-29T10:51:24;1.92;;;1.83;;
7699;SDS011;3892;47.794;19.126;2023-07-29T10:53:53;1.88;;;1.77;;
7699;SDS011;3892;47.794;19.126;2023-07-29T10:56:26;1.90;;;1.80;;
7699;SDS011;3892;47.794;19.126;2023-07-29T10:59:02;1.80;;;1.70;;
7699;SDS011;3892;47.794;19.126;2023-07-29T11:02:00;1.60;;;1.50;;
7699;SDS011;3892;47.794;19.126;2023-07-29T11:04:29;1.80;;;1.70;;
7699;SDS011;3892;47.794;19.126;2023-07-29T11:10:02;1.90;;;1.80;;
7699;SDS011;3892;47.794;19.126;2023-07-29T11:12:35;1.70;;;1.60;;
7699;SDS011;3892;47.794;19.126;2023-07-29T11:15:12;2.40;;;1.90;;
7699;SDS011;3892;47.794;19.126;2023-07-29T11:17:46;2.28;;;2.00;;
7699;SDS011;3892;47.794;19.126;2023-07-29T11:20:15;1.80;;;1.70;;
7699;SDS011;3892;47.794;19.126;2023-07-29T11:22:44;1.75;;;1.65;;
7699;SDS011;3892;47.794;19.126;2023-07-29T11:25:13;1.60;;;1.50;;
7699;SDS011;3892;47.794;19.126;2023-07-29T11:27:43;2.22;;;2.03;;
7699;SDS011;3892;47.794;19.126;2023-07-29T11:30:12;2.83;;;1.80;;
7699;SDS011;3892;47.794;19.126;2023-07-29T11:32:42;2.03;;;1.92;;
7699;SDS011;3892;47.794;19.126;2023-07-29T11:35:12;2.03;;;1.92;;
7699;SDS011;3892;47.794;19.126;2023-07-29T11:37:43;1.88;;;1.77;;
7699;SDS011;3892;47.794;19.126;2023-07-29T11:40:14;2.00;;;1.90;;
7699;SDS011;3892;47.794;19.126;2023-07-29T11:42:43;1.90;;;1.80;;
7699;SDS011;3892;47.794;19.126;2023-07-29T11:45:12;1.90;;;1.80;;
7699;SDS011;3892;47.794;19.126;2023-07-29T11:47:42;2.87;;;1.80;;
7699;SDS011;3892;47.794;19.126;2023-07-29T11:50:12;1.90;;;1.80;;
7699;SDS011;3892;47.794;19.126;2023-07-29T11:52:42;1.83;;;1.73;;
7699;SDS011;3892;47.794;19.126;2023-07-29T11:55:11;1.77;;;1.67;;
7699;SDS011;3892;47.794;19.126;2023-07-29T11:57:41;1.80;;;1.70;;
7699;SDS011;3892;47.794;19.126;2023-07-29T12:00:10;1.98;;;1.88;;
7699;SDS011;3892;47.794;19.126;2023-07-29T12:02:41;1.83;;;1.73;;
7699;SDS011;3892;47.794;19.126;2023-07-29T12:05:13;1.63;;;1.55;;
7699;SDS011;3892;47.794;19.126;2023-07-29T12:07:42;1.92;;;1.83;;
7699;SDS011;3892;47.794;19.126;2023-07-29T12:10:11;1.90;;;1.80;;
7699;SDS011;3892;47.794;19.126;2023-07-29T12:12:43;2.05;;;1.65;;
7699;SDS011;3892;47.794;19.126;2023-07-29T12:15:12;1.90;;;1.80;;
7699;SDS011;3892;47.794;19.126;2023-07-29T12:17:41;1.70;;;1.60;;
7699;SDS011;3892;47.794;19.126;2023-07-29T12:20:09;1.70;;;1.60;;
7699;SDS011;3892;47.794;19.126;2023-07-29T12:22:39;2.10;;;1.98;;
7699;SDS011;3892;47.794;19.126;2023-07-29T12:25:07;1.80;;;1.70;;
7699;SDS011;3892;47.794;19.126;2023-07-29T12:27:36;2.05;;;1.95;;
7699;SDS011;3892;47.794;19.126;2023-07-29T12:30:05;1.73;;;1.63;;
7699;SDS011;3892;47.794;19.126;2023-07-29T12:32:33;1.85;;;1.75;;
7699;SDS011;3892;47.794;19.126;2023-07-29T12:35:11;2.63;;;1.60;;
7699;SDS011;3892;47.794;19.126;2023-07-29T12:37:40;1.65;;;1.55;;
7699;SDS011;3892;47.794;19.126;2023-07-29T12:40:20;2.05;;;1.65;;
7699;SDS011;3892;47.794;19.126;2023-07-29T12:42:50;1.60;;;1.50;;
7699;SDS011;3892;47.794;19.126;2023-07-29T12:45:18;2.17;;;1.65;;
7699;SDS011;3892;47.794;19.126;2023-07-29T12:47:49;1.80;;;1.70;;
7699;SDS011;3892;47.794;19.126;2023-07-29T12:50:17;1.92;;;1.60;;
7699;SDS011;3892;47.794;19.126;2023-07-29T12:52:46;1.98;;;1.65;;
7699;SDS011;3892;47.794;19.126;2023-07-29T12:55:14;2.97;;;1.70;;
7699;SDS011;3892;47.794;19.126;2023-07-29T12:57:43;1.55;;;1.52;;
7699;SDS011;3892;47.794;19.126;2023-07-29T13:00:12;2.05;;;1.95;;
7699;SDS011;3892;47.794;19.126;2023-07-29T13:02:40;1.80;;;1.65;;
7699;SDS011;3892;47.794;19.126;2023-07-29T13:05:09;1.90;;;1.80;;
7699;SDS011;3892;47.794;19.126;2023-07-29T13:07:38;1.70;;;1.60;;
7699;SDS011;3892;47.794;19.126;2023-07-29T13:10:08;1.85;;;1.75;;
7699;SDS011;3892;47.794;19.126;2023-07-29T13:12:37;1.75;;;1.65;;
7699;SDS011;3892;47.794;19.126;2023-07-29T13:15:05;1.73;;;1.63;;
7699;SDS011;3892;47.794;19.126;2023-07-29T13:17:34;2.13;;;2.00;;
7699;SDS011;3892;47.794;19.126;2023-07-29T13:20:04;2.50;;;1.65;;
7699;SDS011;3892;47.794;19.126;2023-07-29T13:22:33;1.70;;;1.60;;
7699;SDS011;3892;47.794;19.126;2023-07-29T13:25:01;2.03;;;1.92;;
7699;SDS011;3892;47.794;19.126;2023-07-29T13:27:31;1.80;;;1.70;;
7699;SDS011;3892;47.794;19.126;2023-07-29T13:29:59;1.98;;;1.88;;
7699;SDS011;3892;47.794;19.126;2023-07-29T13:32:27;2.10;;;2.00;;
7699;SDS011;3892;47.794;19.126;2023-07-29T13:34:55;1.90;;;1.80;;
7699;SDS011;3892;47.794;19.126;2023-07-29T13:37:24;2.55;;;1.83;;
7699;SDS011;3892;47.794;19.126;2023-07-29T13:39:52;1.90;;;1.80;;
7699;SDS011;3892;47.794;19.126;2023-07-29T13:42:20;1.80;;;1.70;;
7699;SDS011;3892;47.794;19.126;2023-07-29T13:44:49;1.70;;;1.70;;
7699;SDS011;3892;47.794;19.126;2023-07-29T13:47:17;2.28;;;1.70;;
7699;SDS011;3892;47.794;19.126;2023-07-29T13:49:45;2.00;;;1.70;;
7699;SDS011;3892;47.794;19.126;2023-07-29T13:52:13;1.83;;;1.73;;
7699;SDS011;3892;47.794;19.126;2023-07-29T13:54:41;2.20;;;2.00;;
7699;SDS011;3892;47.794;19.126;2023-07-29T13:57:09;1.88;;;1.77;;
7699;SDS011;3892;47.794;19.126;2023-07-29T13:59:38;1.80;;;1.70;;
7699;SDS011;3892;47.794;19.126;2023-07-29T14:02:07;2.22;;;1.70;;
7699;SDS011;3892;47.794;19.126;2023-07-29T14:04:35;2.03;;;1.90;;
7699;SDS011;3892;47.794;19.126;2023-07-29T14:07:03;3.70;;;1.90;;
7699;SDS011;3892;47.794;19.126;2023-07-29T14:09:31;1.90;;;1.80;;
7699;SDS011;3892;47.794;19.126;2023-07-29T14:12:00;1.73;;;1.63;;
7699;SDS011;3892;47.794;19.126;2023-07-29T14:14:28;1.85;;;1.73;;
7699;SDS011;3892;47.794;19.126;2023-07-29T14:16:56;1.73;;;1.65;;
7699;SDS011;3892;47.794;19.126;2023-07-29T14:19:25;1.95;;;1.40;;
7699;SDS011;3892;47.794;19.126;2023-07-29T14:21:54;2.83;;;1.75;;
7699;SDS011;3892;47.794;19.126;2023-07-29T14:24:22;1.80;;;1.70;;
7699;SDS011;3892;47.794;19.126;2023-07-29T14:26:50;3.33;;;1.83;;
7699;SDS011;3892;47.794;19.126;2023-07-29T14:29:18;1.95;;;1.80;;
7699;SDS011;3892;47.794;19.126;2023-07-29T14:31:46;2.65;;;1.95;;
7699;SDS011;3892;47.794;19.126;2023-07-29T14:34:14;1.85;;;1.75;;
7699;SDS011;3892;47.794;19.126;2023-07-29T14:36:43;1.90;;;1.80;;
7699;SDS011;3892;47.794;19.126;2023-07-29T14:39:11;1.90;;;1.80;;
7699;SDS011;3892;47.794;19.126;2023-07-29T14:41:39;2.00;;;1.90;;
7699;SDS011;3892;47.794;19.126;2023-07-29T14:44:07;1.60;;;1.55;;
7699;SDS011;3892;47.794;19.126;2023-07-29T14:46:36;1.90;;;1.80;;
7699;SDS011;3892;47.794;19.126;2023-07-29T14:49:04;1.80;;;1.70;;
7699;SDS011;3892;47.794;19.126;2023-07-29T14:51:32;2.15;;;1.95;;
7699;SDS011;3892;47.794;19.126;2023-07-29T14:54:01;1.90;;;1.80;;
7699;SDS011;3892;47.794;19.126;2023-07-29T14:56:30;2.47;;;2.00;;
7699;SDS011;3892;47.794;19.126;2023-07-29T14:58:58;3.40;;;2.40;;
7699;SDS011;3892;47.794;19.126;2023-07-29T15:01:26;2.13;;;1.88;;
7699;SDS011;3892;47.794;19.126;2023-07-29T15:03:54;2.05;;;1.95;;
7699;SDS011;3892;47.794;19.126;2023-07-29T15:06:22;1.70;;;1.60;;
7699;SDS011;3892;47.794;19.126;2023-07-29T15:08:50;1.75;;;1.65;;
7699;SDS011;3892;47.794;19.126;2023-07-29T15:11:19;2.00;;;1.90;;
7699;SDS011;3892;47.794;19.126;2023-07-29T15:13:47;1.95;;;1.50;;
7699;SDS011;3892;47.794;19.126;2023-07-29T15:16:15;2.08;;;1.70;;
7699;SDS011;3892;47.794;19.126;2023-07-29T15:18:44;3.60;;;1.92;;